Time;durP1;ratioP1;P1;durP2;ratioP2;P2;SDS_P1;SDS_P2;PMS_P1;PMS_P2;Temp;Humidity;BMP_temperature;BMP_pressure;BME280_temperature;BME280_humidity;BME280_pressure;Samples;Min_cycle;Max_cycle;Signal;HPM_P1;HPM_P2
2021/04/22 00:06:16;;;;;;;2.90;2.08;;;14.70;63.30;;;;;;20928194;28;20053;-49
2021/04/22 00:16:18;;;;;;;5.20;2.10;;;14.40;66.10;;;;;;20925544;28;20045;-49
2021/04/22 00:26:20;;;;;;;4.78;2.42;;;14.20;67.70;;;;;;20926171;28;20064;-50
2021/04/22 00:36:21;;;;;;;3.95;1.70;;;14.20;69.10;;;;;;20925554;28;20085;-49
2021/04/22 00:46:24;;;;;;;7.50;3.05;;;14.20;69.40;;;;;;20923448;28;20139;-48
2021/04/22 00:56:26;;;;;;;4.85;2.85;;;14.00;70.80;;;;;;20924041;28;20060;-48
2021/04/22 01:16:57;;;;;;;5.70;3.30;;;13.70;73.00;;;;;;20744438;22;20102;-48
2021/04/22 01:27:02;;;;;;;3.93;2.60;;;13.60;73.10;;;;;;20676729;28;20054;-48
2021/04/22 01:37:04;;;;;;;3.65;2.42;;;13.50;73.90;;;;;;20675983;28;20054;-48
2021/04/22 01:47:08;;;;;;;4.32;2.75;;;13.50;73.70;;;;;;20674475;28;20054;-48
2021/04/22 01:57:11;;;;;;;3.30;2.08;;;13.40;73.60;;;;;;20674877;28;20051;-47
2021/04/22 02:07:13;;;;;;;2.78;1.88;;;13.40;74.10;;;;;;20673447;28;20481;-48
2021/04/22 02:17:18;;;;;;;3.80;2.50;;;13.40;73.70;;;;;;20670940;28;20069;-48
2021/04/22 02:27:24;;;;;;;3.92;3.30;;;13.30;74.40;;;;;;20672451;28;20058;-49
2021/04/22 02:37:28;;;;;;;5.87;3.37;;;13.20;75.10;;;;;;20670857;28;20517;-48
2021/04/22 02:47:31;;;;;;;4.95;3.22;;;13.30;75.00;;;;;;20671339;28;20494;-48
2021/04/22 02:57:35;;;;;;;6.00;4.53;;;13.30;75.40;;;;;;20670129;28;20050;-48
2021/04/22 03:07:40;;;;;;;6.57;4.43;;;13.20;75.80;;;;;;20669353;28;20383;-49
2021/04/22 03:17:44;;;;;;;6.97;5.00;;;13.20;76.00;;;;;;20667696;28;20047;-49
2021/04/22 03:27:49;;;;;;;4.75;4.15;;;13.20;76.30;;;;;;20668385;28;20105;-49
2021/04/22 03:37:55;;;;;;;8.02;4.18;;;13.30;75.50;;;;;;20668413;28;20491;-50
2021/04/22 03:47:59;;;;;;;4.93;3.53;;;13.40;76.00;;;;;;20667596;28;20057;-47
2021/04/22 03:58:07;;;;;;;4.55;3.28;;;13.40;75.50;;;;;;20667423;28;20058;-47
2021/04/22 04:08:16;;;;;;;6.00;3.10;;;13.50;75.50;;;;;;20666548;28;20054;-48
2021/04/22 04:18:32;;;;;;;4.80;3.60;;;13.40;75.30;;;;;;20666721;28;20071;-47
2021/04/22 04:28:43;;;;;;;6.30;4.55;;;13.50;75.20;;;;;;20665550;28;20058;-48
2021/04/22 04:38:59;;;;;;;8.70;5.82;;;13.30;76.30;;;;;;20675755;28;20050;-47
2021/04/22 04:49:16;;;;;;;4.55;3.45;;;13.20;77.20;;;;;;20679651;28;20057;-46
2021/04/22 04:59:20;;;;;;;3.53;2.40;;;13.30;76.60;;;;;;20677806;28;20042;-47
2021/04/22 05:09:25;;;;;;;3.67;1.80;;;13.30;76.30;;;;;;20676993;28;20062;-47
2021/04/22 05:19:30;;;;;;;2.30;1.50;;;13.40;75.90;;;;;;20676488;28;20445;-47
2021/04/22 05:29:36;;;;;;;2.65;1.70;;;13.50;75.30;;;;;;20676284;28;20050;-46
2021/04/22 05:39:39;;;;;;;2.70;1.75;;;13.60;75.10;;;;;;20674679;28;20058;-47
2021/04/22 05:49:41;;;;;;;3.55;2.40;;;13.50;74.60;;;;;;20674615;28;20061;-47
2021/04/22 05:59:44;;;;;;;1.98;1.52;;;13.40;74.90;;;;;;20673984;28;20051;-48
2021/04/22 06:09:46;;;;;;;1.85;1.30;;;13.50;75.40;;;;;;20672506;28;20051;-49
2021/04/22 06:19:49;;;;;;;1.98;1.20;;;13.70;74.50;;;;;;20672985;28;20053;-48
2021/04/22 06:29:51;;;;;;;3.60;1.73;;;13.60;74.90;;;;;;20670747;28;20050;-47
2021/04/22 06:39:53;;;;;;;2.92;1.55;;;13.60;74.70;;;;;;20670481;28;20505;-47
2021/04/22 06:49:55;;;;;;;2.28;1.25;;;13.60;75.10;;;;;;20669729;28;20062;-48
2021/04/22 06:59:58;;;;;;;2.63;1.45;;;13.70;74.70;;;;;;20668897;28;20050;-48
2021/04/22 07:10:00;;;;;;;2.40;1.50;;;13.70;74.90;;;;;;20667422;28;20053;-49
2021/04/22 07:20:08;;;;;;;4.90;2.17;;;13.60;75.30;;;;;;20668298;28;20054;-48
2021/04/22 07:30:11;;;;;;;3.72;2.60;;;13.60;76.10;;;;;;20665990;28;20054;-48
2021/04/22 07:40:22;;;;;;;2.88;1.40;;;13.70;75.80;;;;;;20667449;28;20130;-47
2021/04/22 07:50:24;;;;;;;2.75;1.50;;;13.90;75.30;;;;;;20666463;28;20462;-47
2021/04/22 08:00:28;;;;;;;2.22;1.30;;;14.00;75.20;;;;;;20667011;28;20050;-47
2021/04/22 08:10:33;;;;;;;3.80;1.90;;;14.00;74.40;;;;;;20671336;28;20133;-48
2021/04/22 08:20:39;;;;;;;4.40;1.98;;;14.10;74.90;;;;;;20681486;28;20057;-47
2021/04/22 08:30:54;;;;;;;3.08;1.60;;;14.20;74.40;;;;;;20680715;28;20050;-48
2021/04/22 08:40:56;;;;;;;1.83;0.90;;;14.40;72.00;;;;;;20680073;28;20414;-45
2021/04/22 08:51:00;;;;;;;3.50;1.52;;;14.70;68.00;;;;;;20705818;28;20054;-44
2021/04/22 09:01:10;;;;;;;3.03;1.30;;;15.70;65.80;;;;;;20755432;28;20498;-46
2021/04/22 09:11:18;;;;;;;2.92;1.20;;;16.30;64.10;;;;;;20757072;28;20053;-43
2021/04/22 09:21:28;;;;;;;12.82;3.67;;;16.70;62.40;;;;;;20757460;28;20060;-46
2021/04/22 09:31:35;;;;;;;4.40;1.80;;;17.00;61.90;;;;;;20770606;28;20062;-48
2021/04/22 09:41:38;;;;;;;4.70;1.10;;;17.20;62.40;;;;;;20755603;28;20061;-48
2021/04/22 09:51:41;;;;;;;15.63;2.70;;;17.50;61.60;;;;;;20754491;28;20065;-49
2021/04/22 10:01:44;;;;;;;4.68;1.75;;;17.70;61.20;;;;;;20753143;28;20061;-50
2021/04/22 10:11:49;;;;;;;6.65;2.80;;;17.90;59.90;;;;;;20752035;28;20062;-49
2021/04/22 10:21:52;;;;;;;2.88;1.00;;;18.00;59.30;;;;;;20752835;28;20053;-47
2021/04/22 10:31:58;;;;;;;3.97;1.10;;;18.20;57.80;;;;;;20741093;28;20456;-47
2021/04/22 10:42:02;;;;;;;5.10;1.33;;;18.20;57.50;;;;;;20749983;28;20049;-48
2021/04/22 10:52:04;;;;;;;3.20;1.27;;;18.40;56.70;;;;;;20748895;28;20050;-48
2021/04/22 11:02:18;;;;;;;2.58;1.17;;;18.50;56.40;;;;;;20749303;28;20050;-48
2021/04/22 11:12:29;;;;;;;4.07;1.23;;;18.60;55.70;;;;;;20697388;28;20133;-49
2021/04/22 11:22:33;;;;;;;1.88;1.13;;;18.70;55.80;;;;;;20667251;28;20069;-44
2021/04/22 11:32:42;;;;;;;1.75;1.10;;;18.80;55.00;;;;;;20666297;28;20054;-48
2021/04/22 11:42:47;;;;;;;2.83;1.27;;;19.00;54.50;;;;;;20669529;28;20445;-48
2021/04/22 11:52:53;;;;;;;5.63;1.65;;;19.10;53.90;;;;;;20682319;28;20086;-49
2021/04/22 12:02:56;;;;;;;4.25;1.90;;;19.00;54.00;;;;;;20681248;28;20077;-48
2021/04/22 12:13:07;;;;;;;4.32;1.17;;;18.90;52.00;;;;;;20680736;28;20159;-49
2021/04/22 12:23:10;;;;;;;2.50;1.10;;;18.50;52.40;;;;;;20681227;28;20061;-49
2021/04/22 12:33:17;;;;;;;4.22;1.63;;;18.20;53.60;;;;;;20678984;28;20080;-48
2021/04/22 12:43:18;;;;;;;5.32;1.20;;;17.90;55.20;;;;;;20679838;28;20108;-49
2021/04/22 12:53:23;;;;;;;2.47;1.13;;;17.90;54.60;;;;;;20677331;28;20054;-50
2021/04/22 13:03:31;;;;;;;3.65;1.85;;;17.80;54.30;;;;;;20677295;28;20082;-50
2021/04/22 13:13:37;;;;;;;3.60;1.40;;;17.90;52.70;;;;;;20676578;28;20486;-49
2021/04/22 13:23:40;;;;;;;3.45;1.15;;;18.20;52.50;;;;;;20676972;28;20057;-49
2021/04/22 13:33:42;;;;;;;;;;;18.30;51.80;;;;;;20675428;28;20112;-49
2021/04/22 13:44:14;;;;;;;3.88;1.60;;;18.40;51.20;;;;;;20675311;28;19932;-49
2021/04/22 13:54:30;;;;;;;3.63;2.10;;;18.70;49.20;;;;;;20504018;28;20125;-49
2021/04/22 14:04:32;;;;;;;4.03;1.95;;;18.40;54.30;;;;;;20503840;28;20058;-49
2021/04/22 14:14:35;;;;;;;3.42;2.10;;;18.10;55.30;;;;;;20502468;28;20051;-49
2021/04/22 14:24:39;;;;;;;6.05;2.30;;;17.80;56.40;;;;;;20550950;28;20054;-50
2021/04/22 14:34:41;;;;;;;5.03;1.38;;;17.70;60.30;;;;;;20669209;28;20085;-47
2021/04/22 14:44:43;;;;;;;3.10;0.98;;;18.00;57.00;;;;;;20670230;28;20060;-50
2021/04/22 14:54:45;;;;;;;2.45;1.15;;;18.50;56.60;;;;;;20667811;28;20089;-48
2021/04/22 15:04:47;;;;;;;3.17;1.40;;;18.80;54.90;;;;;;20704986;28;20080;-48
2021/04/22 15:14:48;;;;;;;2.25;1.48;;;18.70;54.60;;;;;;20746278;28;20093;-46
2021/04/22 15:24:51;;;;;;;4.72;1.95;;;18.40;54.80;;;;;;20735584;28;20050;-46
2021/04/22 15:34:53;;;;;;;3.43;2.23;;;18.40;56.50;;;;;;20714121;28;20506;-45
2021/04/22 15:44:55;;;;;;;6.03;2.25;;;18.50;57.00;;;;;;20704662;28;20455;-46
2021/04/22 15:54:58;;;;;;;4.47;2.42;;;18.50;57.30;;;;;;20745188;28;20057;-48
2021/04/22 16:05:00;;;;;;;3.20;2.60;;;18.60;57.60;;;;;;20746088;28;20437;-47
2021/04/22 16:15:05;;;;;;;4.15;2.17;;;18.70;57.90;;;;;;20745796;28;20049;-50
2021/04/22 16:25:10;;;;;;;3.53;1.85;;;18.90;57.20;;;;;;20746526;28;20112;-47
2021/04/22 16:35:12;;;;;;;4.20;1.80;;;19.00;55.80;;;;;;20757890;28;20517;-47
2021/04/22 16:45:17;;;;;;;5.17;2.00;;;19.00;54.70;;;;;;20760780;28;20046;-46
2021/04/22 16:55:21;;;;;;;5.78;2.05;;;18.90;54.70;;;;;;20760133;28;20058;-49
2021/04/22 17:05:22;;;;;;;5.40;2.03;;;18.80;54.00;;;;;;20757818;28;20060;-46
2021/04/22 17:15:24;;;;;;;3.38;1.83;;;18.80;53.30;;;;;;20756072;28;20502;-47
2021/04/22 17:25:26;;;;;;;3.55;1.52;;;18.90;53.60;;;;;;20757680;28;20050;-51
2021/04/22 17:35:28;;;;;;;6.38;1.80;;;19.00;53.00;;;;;;20756570;28;20073;-47
2021/04/22 17:45:30;;;;;;;4.17;2.03;;;19.00;52.90;;;;;;20755060;28;20042;-46
2021/04/22 17:55:33;;;;;;;13.32;4.68;;;18.90;53.20;;;;;;20755310;28;20136;-46
2021/04/22 18:05:35;;;;;;;16.65;6.57;;;18.70;54.10;;;;;;20753705;28;20437;-46
2021/04/22 18:15:38;;;;;;;11.50;4.55;;;18.80;54.20;;;;;;20749271;28;20058;-46
2021/04/22 18:25:41;;;;;;;6.57;3.00;;;18.80;54.60;;;;;;20751769;28;20436;-46
2021/04/22 18:35:43;;;;;;;6.07;3.17;;;18.80;54.40;;;;;;20750993;28;20585;-46
2021/04/22 18:45:45;;;;;;;4.13;1.77;;;18.90;54.20;;;;;;20750076;28;20477;-49
2021/04/22 18:55:46;;;;;;;2.90;1.50;;;18.70;55.40;;;;;;20750414;28;20399;-49
2021/04/22 19:05:48;;;;;;;2.53;1.33;;;18.00;58.60;;;;;;20749920;28;20053;-49
2021/04/22 19:15:50;;;;;;;4.35;2.00;;;17.70;60.30;;;;;;20747964;28;20053;-48
2021/04/22 19:25:52;;;;;;;2.47;1.20;;;17.40;62.10;;;;;;20747811;28;20060;-49
2021/04/22 19:35:53;;;;;;;3.63;1.63;;;17.20;60.70;;;;;;20748021;28;20050;-49
2021/04/22 19:45:57;;;;;;;5.20;1.55;;;17.10;60.00;;;;;;20747814;28;20476;-51
2021/04/22 19:56:01;;;;;;;2.92;1.60;;;17.00;59.50;;;;;;20746748;28;20050;-49
2021/04/22 20:06:06;;;;;;;4.40;1.60;;;16.80;60.00;;;;;;20752855;28;20060;-49
2021/04/22 20:16:09;;;;;;;3.58;2.10;;;16.70;60.50;;;;;;20761218;28;20062;-50
2021/04/22 20:26:13;;;;;;;2.65;1.73;;;16.60;60.80;;;;;;20762670;28;20494;-51
2021/04/22 20:36:16;;;;;;;4.30;1.67;;;16.50;60.20;;;;;;20761928;28;20053;-50
2021/04/22 20:46:18;;;;;;;2.60;1.43;;;16.40;59.70;;;;;;20760493;28;20137;-51
2021/04/22 20:56:19;;;;;;;3.40;1.83;;;16.40;59.50;;;;;;20759197;28;20061;-51
2021/04/22 21:06:21;;;;;;;2.50;1.10;;;16.40;60.20;;;;;;20759244;28;20912;-51
2021/04/22 21:16:23;;;;;;;3.33;1.27;;;16.40;59.10;;;;;;20756429;28;20068;-50
2021/04/22 21:26:50;;;;;;;2.42;1.58;;;16.40;59.20;;;;;;20756776;28;20072;-50
2021/04/22 21:36:53;;;;;;;4.15;1.58;;;16.40;58.90;;;;;;20757265;28;20085;-50
2021/04/22 21:46:55;;;;;;;3.85;1.30;;;16.30;59.40;;;;;;20757182;28;20050;-50
2021/04/22 21:56:57;;;;;;;3.88;1.30;;;16.20;59.60;;;;;;20755660;28;20176;-51
2021/04/22 22:07:00;;;;;;;1.88;0.98;;;16.20;60.40;;;;;;20755150;28;20092;-49
2021/04/22 22:17:03;;;;;;;2.00;1.10;;;16.00;61.90;;;;;;20753665;28;20065;-50
2021/04/22 22:27:05;;;;;;;2.92;1.42;;;16.00;63.10;;;;;;20752426;28;20049;-50
2021/04/22 22:37:07;;;;;;;3.00;1.40;;;16.00;63.70;;;;;;20753199;28;20064;-50
2021/04/22 22:47:09;;;;;;;2.28;1.50;;;15.80;64.80;;;;;;20751898;28;20057;-49
2021/04/22 22:57:11;;;;;;;2.30;1.50;;;15.70;66.00;;;;;;20751903;28;20050;-48
2021/04/22 23:07:13;;;;;;;2.88;2.10;;;15.60;67.10;;;;;;20750414;28;20049;-50
2021/04/22 23:17:15;;;;;;;2.67;1.98;;;15.50;68.10;;;;;;20748799;28;20050;-49
2021/04/22 23:27:17;;;;;;;3.53;2.65;;;15.40;68.60;;;;;;20749226;28;20058;-48
2021/04/22 23:37:19;;;;;;;4.90;2.15;;;15.40;69.00;;;;;;20749444;28;20054;-49
2021/04/22 23:47:21;;;;;;;3.70;1.45;;;15.40;67.70;;;;;;20748627;28;20494;-50
2021/04/22 23:57:23;;;;;;;2.47;1.10;;;15.30;63.70;;;;;;20749243;28;20136;-50
